Terminal Aerodrome Forecast
Issued by NWS Omaha/Valley, NE

Home | Current Version | Previous Version | Graphics & Text | Print | Product List | Glossary Off
Versions: 1 2 3 4 5 6 7 8 9 10 11 12 13 14 15

000
FTUS43 KOAX 301720
TAFOFK
TAF
KOFK 301720Z 3018/0118 12007KT P6SM FEW030 SCT250
     FM302100 13007KT P6SM BKN250
     FM010600 VRB04KT P6SM FEW250
     FM010900 00000KT 5SM BR SCT007 BKN250
      TEMPO 0110/0114 1SM BR BKN007
     FM011500 14005KT P6SM SCT020 BKN250=

USA.gov is the U.S. government's official web portal to all federal, state and local government web resources and services.